createdAt,value
2019-01-15T00:00:58.690Z,1015.53
2019-01-15T00:02:09.913Z,1015.51
2019-01-15T00:03:19.842Z,1015.56
2019-01-15T00:04:29.763Z,1015.62
2019-01-15T00:05:39.687Z,1015.57
2019-01-15T00:06:49.358Z,1015.62
2019-01-15T00:07:59.028Z,1015.6
2019-01-15T00:09:08.443Z,1015.57
2019-01-15T00:10:17.857Z,1015.64
2019-01-15T00:11:27.778Z,1015.6
2019-01-15T00:12:37.451Z,1015.63
2019-01-15T00:13:46.873Z,1015.53
2019-01-15T00:14:56.541Z,1015.62
2019-01-15T00:16:06.468Z,1015.61
2019-01-15T00:17:15.638Z,1015.63
2019-01-15T00:18:25.057Z,1015.58
2019-01-15T00:19:34.725Z,1015.63
2019-01-15T00:20:44.400Z,1015.59
2019-01-15T00:21:53.821Z,1015.61
2019-01-15T00:23:03.497Z,1015.58
2019-01-15T00:24:13.415Z,1015.6
2019-01-15T00:25:22.835Z,1015.59
2019-01-15T00:26:32.257Z,1015.62
2019-01-15T00:27:41.926Z,1015.61
2019-01-15T00:28:51.551Z,1015.59
2019-01-15T00:30:00.984Z,1015.63
2019-01-15T00:31:10.897Z,1015.54
2019-01-15T00:32:20.318Z,1015.5
2019-01-15T00:33:30.248Z,1015.58
2019-01-15T00:34:39.924Z,1015.59
2019-01-15T00:35:49.337Z,1015.63
2019-01-15T00:36:59.007Z,1015.61
2019-01-15T00:38:08.675Z,1015.59
2019-01-15T00:39:18.099Z,1015.61
2019-01-15T00:40:27.775Z,1015.65
2019-01-15T00:41:37.446Z,1015.62
2019-01-15T00:42:47.364Z,1015.65
2019-01-15T00:43:56.793Z,1015.63
2019-01-15T00:45:06.719Z,1015.66
2019-01-15T00:46:16.388Z,1015.68
2019-01-15T00:47:25.842Z,1015.71
2019-01-15T00:48:35.024Z,1015.74
2019-01-15T00:49:44.937Z,1015.8
2019-01-15T00:50:54.613Z,1015.77
2019-01-15T00:52:04.030Z,1015.7
2019-01-15T00:53:13.457Z,1015.77
2019-01-15T00:54:23.381Z,1015.73
2019-01-15T00:55:33.305Z,1015.78
2019-01-15T00:56:42.783Z,1015.83
2019-01-15T00:57:52.475Z,1015.9
2019-01-15T00:59:01.430Z,1015.78
2019-01-15T01:00:11.361Z,1015.87
2019-01-15T01:01:21.022Z,1015.79
2019-01-15T01:02:30.690Z,1015.83
2019-01-15T01:03:40.609Z,1015.88
2019-01-15T01:04:50.274Z,1015.89
2019-01-15T01:05:59.692Z,1015.82
2019-01-15T01:07:09.164Z,1015.88
2019-01-15T01:08:18.841Z,1015.84
2019-01-15T01:09:28.511Z,1015.83
2019-01-15T01:10:38.425Z,1015.84
2019-01-15T01:11:48.092Z,1015.81
2019-01-15T01:12:57.758Z,1015.79
2019-01-15T01:14:07.429Z,1015.8
2019-01-15T01:15:17.117Z,1015.79
2019-01-15T01:16:26.541Z,1015.75
2019-01-15T01:17:36.477Z,1015.78
2019-01-15T01:18:46.403Z,1015.76
2019-01-15T01:19:55.820Z,1015.79
2019-01-15T01:21:05.087Z,1015.75
2019-01-15T01:22:15.005Z,1015.82
2019-01-15T01:23:31.190Z,1015.76
2019-01-15T01:24:40.903Z,1015.76
2019-01-15T01:25:50.576Z,1015.74
2019-01-15T01:26:59.752Z,1015.77
2019-01-15T01:28:09.427Z,1015.71
2019-01-15T01:29:19.342Z,1015.8
2019-01-15T01:30:28.558Z,1015.77
2019-01-15T01:31:38.475Z,1015.72
2019-01-15T01:32:48.400Z,1015.78
2019-01-15T01:33:58.066Z,1015.73
2019-01-15T01:35:07.741Z,1015.69
2019-01-15T01:36:17.414Z,1015.69
2019-01-15T01:37:27.086Z,1015.71
2019-01-15T01:38:36.508Z,1015.62
2019-01-15T01:39:45.679Z,1015.66
2019-01-15T01:40:55.099Z,1015.62
2019-01-15T01:42:04.830Z,1015.56
2019-01-15T01:43:14.764Z,1015.64
2019-01-15T01:44:23.934Z,1015.67
2019-01-15T01:45:33.358Z,1015.68
2019-01-15T01:46:42.783Z,1015.67
2019-01-15T01:47:52.712Z,1015.65
2019-01-15T01:49:02.381Z,1015.66
2019-01-15T01:50:12.299Z,1015.63
2019-01-15T01:51:22.222Z,1015.67
2019-01-15T01:52:31.640Z,1015.68
2019-01-15T01:53:41.079Z,1015.63
2019-01-15T01:54:50.781Z,1015.64
2019-01-15T01:56:00.704Z,1015.62
2019-01-15T01:57:10.635Z,1015.66
2019-01-15T01:58:20.311Z,1015.63
2019-01-15T01:59:29.746Z,1015.69
2019-01-15T02:00:39.416Z,1015.64
2019-01-15T02:01:49.092Z,1015.6
2019-01-15T02:02:58.289Z,1015.64
2019-01-15T02:04:07.704Z,1015.6
2019-01-15T02:05:17.374Z,1015.56
2019-01-15T02:06:27.053Z,1015.55
2019-01-15T02:07:36.484Z,1015.57
2019-01-15T02:08:46.419Z,1015.52
2019-01-15T02:09:56.094Z,1015.53
2019-01-15T02:11:05.516Z,1015.54
2019-01-15T02:12:15.201Z,1015.56
2019-01-15T02:13:24.870Z,1015.5
2019-01-15T02:14:34.540Z,1015.51
2019-01-15T02:15:43.963Z,1015.51
2019-01-15T02:16:53.634Z,1015.57
2019-01-15T02:18:03.573Z,1015.5
2019-01-15T02:19:12.999Z,1015.53
2019-01-15T02:20:22.923Z,1015.58
2019-01-15T02:21:32.590Z,1015.52
2019-01-15T02:22:41.766Z,1015.49
2019-01-15T02:23:51.686Z,1015.49
2019-01-15T02:25:01.359Z,1015.53
2019-01-15T02:26:11.025Z,1015.41
2019-01-15T02:27:20.697Z,1015.49
2019-01-15T02:28:30.176Z,1015.44
2019-01-15T02:29:39.849Z,1015.41
2019-01-15T02:30:49.282Z,1015.43
2019-01-15T02:31:58.448Z,1015.42
2019-01-15T02:33:08.121Z,1015.4
2019-01-15T02:34:17.546Z,1015.35
2019-01-15T02:35:27.467Z,1015.36
2019-01-15T02:36:36.917Z,1015.32
2019-01-15T02:37:46.843Z,1015.34
2019-01-15T02:38:56.518Z,1015.32
2019-01-15T02:40:06.448Z,1015.34
2019-01-15T02:41:16.131Z,1015.36
2019-01-15T02:42:25.808Z,1015.36
2019-01-15T02:45:51.630Z,1015.35
2019-01-15T02:47:01.310Z,1015.28
2019-01-15T02:48:10.238Z,1015.29
2019-01-15T02:49:20.173Z,1015.26
2019-01-15T02:50:29.618Z,1015.2
2019-01-15T02:51:39.311Z,1015.16
2019-01-15T02:52:48.732Z,1015.17
2019-01-15T02:53:58.902Z,1015.22
2019-01-15T02:55:08.881Z,1015.23
2019-01-15T02:56:18.815Z,1015.24
2019-01-15T02:57:28.494Z,1015.18
2019-01-15T02:58:38.431Z,1015.14
2019-01-15T02:59:48.351Z,1015.15
2019-01-15T03:00:58.023Z,1015.18
2019-01-15T03:02:07.322Z,1015.08
2019-01-15T03:03:17.005Z,1015.14
2019-01-15T03:04:26.684Z,1015.13
2019-01-15T03:05:36.368Z,1015.17
2019-01-15T03:06:46.290Z,1015.15
2019-01-15T03:07:55.728Z,1015.24
2019-01-15T03:09:05.650Z,1015.2
2019-01-15T03:10:15.586Z,1015.18
2019-01-15T03:11:25.258Z,1015.14
2019-01-15T03:12:34.674Z,1015.19
2019-01-15T03:13:44.350Z,1015.21
2019-01-15T03:14:53.811Z,1015.2
2019-01-15T03:16:03.489Z,1015.25
2019-01-15T03:17:12.923Z,1015.28
2019-01-15T03:18:22.608Z,1015.28
2019-01-15T03:19:32.289Z,1015.28
2019-01-15T03:20:41.970Z,1015.32
2019-01-15T03:21:51.408Z,1015.18
2019-01-15T03:23:01.335Z,1015.24
2019-01-15T03:24:10.764Z,1015.22
2019-01-15T03:25:20.439Z,1015.18
2019-01-15T03:26:29.873Z,1015.12
2019-01-15T03:27:39.561Z,1015.11
2019-01-15T03:28:49.248Z,1015.1
2019-01-15T03:29:58.930Z,1015.12
2019-01-15T03:31:08.617Z,1015.13
2019-01-15T03:32:18.320Z,1015.2
2019-01-15T03:33:28.033Z,1015.18
2019-01-15T03:34:37.455Z,1015.17
2019-01-15T03:35:47.411Z,1015.19
2019-01-15T03:36:56.836Z,1015.2
2019-01-15T03:38:06.254Z,1015.21
2019-01-15T03:39:15.936Z,1015.15
2019-01-15T03:40:25.883Z,1015.15
2019-01-15T03:41:35.570Z,1015.14
2019-01-15T03:42:45.261Z,1015.1
2019-01-15T03:43:54.433Z,1015.12
2019-01-15T03:45:05.032Z,1015.06
2019-01-15T03:46:14.917Z,1015.03
2019-01-15T03:47:24.851Z,1015.09
2019-01-15T03:48:34.036Z,1015.12
2019-01-15T03:49:43.961Z,1015.07
2019-01-15T03:50:53.893Z,1015.1
2019-01-15T03:52:03.580Z,1015.12
2019-01-15T03:53:13.267Z,1015.14
2019-01-15T03:54:22.943Z,1015.17
2019-01-15T03:55:32.872Z,1015.18
2019-01-15T03:56:42.548Z,1015.15
2019-01-15T03:57:52.484Z,1015.11
2019-01-15T03:59:02.413Z,1015.09
2019-01-15T04:00:12.098Z,1015.07
2019-01-15T04:01:21.779Z,1015
2019-01-15T04:02:31.211Z,1014.95
2019-01-15T04:03:40.638Z,1014.94
2019-01-15T04:04:50.079Z,1014.95
2019-01-15T04:05:59.753Z,1014.98
2019-01-15T04:07:09.180Z,1014.97
2019-01-15T04:08:18.361Z,1014.86
2019-01-15T04:09:27.790Z,1014.87
2019-01-15T04:10:37.467Z,1014.93
2019-01-15T04:11:47.155Z,1014.87
2019-01-15T04:12:56.605Z,1014.89
2019-01-15T04:14:13.744Z,1014.91
2019-01-15T04:15:23.425Z,1014.85
2019-01-15T04:16:32.856Z,1014.82
2019-01-15T04:17:42.546Z,1014.78
2019-01-15T04:18:52.244Z,1014.85
2019-01-15T04:20:01.698Z,1014.75
2019-01-15T04:21:11.646Z,1014.74
2019-01-15T04:22:21.326Z,1014.76
2019-01-15T04:23:31.250Z,1014.71
2019-01-15T04:24:40.696Z,1014.71
2019-01-15T04:25:50.368Z,1014.73
2019-01-15T04:27:00.051Z,1014.71
2019-01-15T04:28:09.728Z,1014.68
2019-01-15T04:29:19.166Z,1014.7
2019-01-15T04:30:29.095Z,1014.69
2019-01-15T04:31:38.773Z,1014.64
2019-01-15T04:32:48.199Z,1014.64
2019-01-15T04:33:57.624Z,1014.6
2019-01-15T04:35:07.092Z,1014.6
2019-01-15T04:36:17.052Z,1014.58
2019-01-15T04:37:26.980Z,1014.57
2019-01-15T04:38:36.402Z,1014.61
2019-01-15T04:39:45.579Z,1014.57
2019-01-15T04:40:55.266Z,1014.59
2019-01-15T04:42:04.690Z,1014.53
2019-01-15T04:43:19.582Z,1014.48
2019-01-15T04:44:29.322Z,1014.45
2019-01-15T04:45:39.003Z,1014.46
2019-01-15T04:46:48.671Z,1014.36
2019-01-15T04:47:58.620Z,1014.37
2019-01-15T04:49:08.300Z,1014.37
2019-01-15T04:50:18.257Z,1014.35
2019-01-15T04:51:27.945Z,1014.36
2019-01-15T04:52:37.876Z,1014.34
2019-01-15T04:53:47.855Z,1014.29
2019-01-15T04:54:57.791Z,1014.36
2019-01-15T04:56:07.474Z,1014.36
2019-01-15T04:57:16.901Z,1014.24
2019-01-15T04:58:26.836Z,1014.21
2019-01-15T04:59:36.518Z,1014.18
2019-01-15T05:00:46.444Z,1014.19
2019-01-15T05:01:55.878Z,1014.14
2019-01-15T05:03:05.796Z,1014.15
2019-01-15T05:04:15.493Z,1014.11
2019-01-15T05:05:25.432Z,1014.06
2019-01-15T05:06:34.869Z,1014.09
2019-01-15T05:07:44.562Z,1014.1
2019-01-15T05:08:53.746Z,1014.14
2019-01-15T05:10:03.668Z,1014.05
2019-01-15T05:11:13.594Z,1014.07
2019-01-15T05:12:23.270Z,1014.02
2019-01-15T05:13:32.951Z,1013.98
2019-01-15T05:14:42.875Z,1014.06
2019-01-15T05:15:52.813Z,1014.1
2019-01-15T05:17:02.747Z,1014.01
2019-01-15T05:18:12.450Z,1013.96
2019-01-15T05:19:22.224Z,1013.9
2019-01-15T05:20:31.910Z,1013.97
2019-01-15T05:21:41.603Z,1014
2019-01-15T05:22:51.287Z,1013.98
2019-01-15T05:24:00.973Z,1014.01
2019-01-15T05:25:10.903Z,1013.91
2019-01-15T05:26:20.398Z,1014.11
2019-01-15T05:27:30.920Z,1013.95
2019-01-15T05:28:40.854Z,1014.01
2019-01-15T05:29:50.794Z,1014
2019-01-15T05:31:00.904Z,1013.92
2019-01-15T05:32:10.103Z,1013.94
2019-01-15T05:33:19.800Z,1013.87
2019-01-15T05:34:29.494Z,1013.86
2019-01-15T05:35:39.197Z,1013.91
2019-01-15T05:36:48.873Z,1013.92
2019-01-15T05:37:58.303Z,1013.88
2019-01-15T05:39:07.994Z,1013.89
2019-01-15T05:40:17.676Z,1013.89
2019-01-15T05:41:27.392Z,1013.82
2019-01-15T05:42:37.070Z,1013.84
2019-01-15T05:43:46.752Z,1013.87
2019-01-15T05:44:56.687Z,1013.85
2019-01-15T05:46:06.370Z,1013.92
2019-01-15T05:47:16.322Z,1013.8
2019-01-15T05:48:26.250Z,1013.82
2019-01-15T05:49:35.929Z,1013.72
2019-01-15T05:50:45.295Z,1013.75
2019-01-15T05:51:54.969Z,1013.72
2019-01-15T05:53:04.676Z,1013.63
2019-01-15T05:54:14.370Z,1013.64
2019-01-15T05:55:24.302Z,1013.71
2019-01-15T05:56:34.241Z,1013.62
2019-01-15T05:57:44.179Z,1013.69
2019-01-15T05:58:53.602Z,1013.63
2019-01-15T06:00:03.275Z,1013.69
2019-01-15T06:01:12.955Z,1013.63
2019-01-15T06:02:22.375Z,1013.6
2019-01-15T06:03:32.051Z,1013.53
2019-01-15T06:04:41.719Z,1013.5
2019-01-15T06:05:50.909Z,1013.63
2019-01-15T06:07:00.830Z,1013.53
2019-01-15T06:08:10.760Z,1013.6
2019-01-15T06:09:20.439Z,1013.63
2019-01-15T06:10:29.623Z,1013.59
2019-01-15T06:11:39.053Z,1013.54
2019-01-15T06:12:48.488Z,1013.5
2019-01-15T06:13:58.408Z,1013.56
2019-01-15T06:15:07.831Z,1013.6
2019-01-15T06:16:17.257Z,1013.6
2019-01-15T06:17:26.937Z,1013.54
2019-01-15T06:18:36.628Z,1013.68
2019-01-15T06:19:46.559Z,1013.53
2019-01-15T06:20:56.230Z,1013.46
2019-01-15T06:22:05.696Z,1013.44
2019-01-15T06:23:15.122Z,1013.5
2019-01-15T06:24:24.790Z,1013.47
2019-01-15T06:25:34.213Z,1013.52
2019-01-15T06:26:43.926Z,1013.53
2019-01-15T06:27:53.613Z,1013.52
2019-01-15T06:29:02.943Z,1013.51
2019-01-15T06:30:12.623Z,1013.51
2019-01-15T06:31:22.298Z,1013.51
2019-01-15T06:32:31.973Z,1013.57
2019-01-15T06:33:41.650Z,1013.53
2019-01-15T06:34:51.349Z,1013.44
2019-01-15T06:36:01.287Z,1013.37
2019-01-15T06:37:11.222Z,1013.35
2019-01-15T06:38:20.906Z,1013.38
2019-01-15T06:39:30.844Z,1013.47
2019-01-15T06:40:40.532Z,1013.46
2019-01-15T06:41:49.960Z,1013.43
2019-01-15T06:42:59.888Z,1013.4
2019-01-15T06:44:11.188Z,1013.45
2019-01-15T06:45:20.619Z,1013.45
2019-01-15T06:46:30.300Z,1013.53
2019-01-15T06:47:39.975Z,1013.55
2019-01-15T06:48:49.398Z,1013.56
2019-01-15T06:49:59.333Z,1013.54
2019-01-15T06:51:09.268Z,1013.54
2019-01-15T06:52:18.446Z,1013.47
2019-01-15T06:53:27.869Z,1013.49
2019-01-15T06:54:37.292Z,1013.45
2019-01-15T06:55:46.722Z,1013.4
2019-01-15T06:56:56.156Z,1013.41
2019-01-15T06:58:05.865Z,1013.43
2019-01-15T06:59:15.542Z,1013.45
2019-01-15T07:00:25.240Z,1013.39
2019-01-15T07:01:34.424Z,1013.44
2019-01-15T07:02:44.346Z,1013.51
2019-01-15T07:03:53.772Z,1013.54
2019-01-15T07:05:03.446Z,1013.55
2019-01-15T07:06:14.726Z,1013.54
2019-01-15T07:07:24.651Z,1013.56
2019-01-15T07:08:34.074Z,1013.56
2019-01-15T07:09:43.755Z,1013.54
2019-01-15T07:10:53.431Z,1013.53
2019-01-15T07:12:03.111Z,1013.49
2019-01-15T07:13:13.275Z,1013.42
2019-01-15T07:14:22.454Z,1013.39
2019-01-15T07:15:31.639Z,1013.29
2019-01-15T07:16:41.574Z,1013.26
2019-01-15T07:17:51.251Z,1013.18
2019-01-15T07:19:00.974Z,1013.18
2019-01-15T07:20:10.156Z,1013.19
2019-01-15T07:21:19.844Z,1013.24
2019-01-15T07:22:29.074Z,1013.28
2019-01-15T07:23:38.744Z,1013.3
2019-01-15T07:24:48.420Z,1013.26
2019-01-15T07:25:57.858Z,1013.23
2019-01-15T07:27:07.534Z,1013.16
2019-01-15T07:28:16.959Z,1013.2
2019-01-15T07:29:26.387Z,1013.21
2019-01-15T07:30:36.064Z,1013.15
2019-01-15T07:31:45.499Z,1013.25
2019-01-15T07:32:55.405Z,1013.27
2019-01-15T07:34:05.442Z,1013.25
2019-01-15T07:35:15.118Z,1013.21
2019-01-15T07:36:24.791Z,1013.23
2019-01-15T07:37:34.712Z,1013.21
2019-01-15T07:38:44.645Z,1013.18
2019-01-15T07:39:54.317Z,1013.19
2019-01-15T07:41:03.496Z,1013.21
2019-01-15T07:42:13.173Z,1013.18
2019-01-15T07:43:22.857Z,1013.14
2019-01-15T07:44:32.282Z,1013.13
2019-01-15T07:45:42.209Z,1013.2
2019-01-15T07:46:51.885Z,1013.13
2019-01-15T07:48:01.307Z,1013.09
2019-01-15T07:49:11.236Z,1013.1
2019-01-15T07:50:20.911Z,1013.08
2019-01-15T07:51:30.839Z,1013.14
2019-01-15T07:52:40.268Z,1013.14
2019-01-15T07:53:49.450Z,1013.11
2019-01-15T07:54:58.876Z,1013.13
2019-01-15T07:56:09.862Z,1013.11
2019-01-15T07:57:19.542Z,1013.12
2019-01-15T07:58:28.968Z,1013.16
2019-01-15T07:59:38.896Z,1013.15
2019-01-15T08:00:48.328Z,1013.13
2019-01-15T08:01:57.253Z,1013.14
2019-01-15T08:03:06.935Z,1013.2
2019-01-15T08:04:16.115Z,1013.19
2019-01-15T08:05:26.044Z,1013.16
2019-01-15T08:06:35.717Z,1013.18
2019-01-15T08:07:45.638Z,1013.19
2019-01-15T08:08:55.325Z,1013.17
2019-01-15T08:10:05.247Z,1013.23
2019-01-15T08:11:15.174Z,1013.14
2019-01-15T08:12:24.600Z,1013.15
2019-01-15T08:13:34.275Z,1013.19
2019-01-15T08:14:43.713Z,1013.19
2019-01-15T08:15:53.395Z,1013.15
2019-01-15T08:17:04.139Z,1013.18
2019-01-15T08:18:14.067Z,1013.3
2019-01-15T08:19:24.005Z,1013.31
2019-01-15T08:20:33.939Z,1013.35
2019-01-15T08:21:43.640Z,1013.36
2019-01-15T08:22:53.327Z,1013.34
2019-01-15T08:24:03.014Z,1013.32
2019-01-15T08:25:12.476Z,1013.3
2019-01-15T08:26:21.907Z,1013.34
2019-01-15T08:27:31.588Z,1013.31
2019-01-15T08:28:41.275Z,1013.26
2019-01-15T08:29:50.958Z,1013.23
2019-01-15T08:31:00.646Z,1013.28
2019-01-15T08:32:09.832Z,1013.26
2019-01-15T08:33:19.506Z,1013.3
2019-01-15T08:34:29.450Z,1013.31
2019-01-15T08:35:39.381Z,1013.35
2019-01-15T08:36:49.306Z,1013.32
2019-01-15T08:37:58.732Z,1013.28
2019-01-15T08:39:08.409Z,1013.28
2019-01-15T08:40:17.835Z,1013.29
2019-01-15T08:41:27.565Z,1013.29
2019-01-15T08:42:37.484Z,1013.25
2019-01-15T08:43:47.177Z,1013.33
2019-01-15T08:44:56.912Z,1013.31
2019-01-15T08:46:06.596Z,1013.3
2019-01-15T08:47:16.520Z,1013.26
2019-01-15T08:48:26.451Z,1013.26
2019-01-15T08:49:36.128Z,1013.23
2019-01-15T08:50:46.060Z,1013.33
2019-01-15T08:51:55.494Z,1013.24
2019-01-15T08:53:05.174Z,1013.18
2019-01-15T08:54:14.852Z,1013.27
2019-01-15T08:55:24.530Z,1013.22
2019-01-15T08:56:34.459Z,1013.26
2019-01-15T08:57:44.387Z,1013.19
2019-01-15T08:58:53.820Z,1013.19
2019-01-15T09:00:03.503Z,1013.15
2019-01-15T09:01:13.191Z,1013.18
2019-01-15T09:02:23.119Z,1013.17
2019-01-15T09:03:32.552Z,1013.18
2019-01-15T09:04:42.229Z,1013.15
2019-01-15T09:05:51.909Z,1013.22
2019-01-15T09:07:01.837Z,1013.15
2019-01-15T09:08:11.269Z,1013.18
2019-01-15T09:09:20.856Z,1013.19
2019-01-15T09:10:30.531Z,1013.16
2019-01-15T09:11:40.206Z,1013.21
2019-01-15T09:12:49.638Z,1013.16
2019-01-15T09:13:58.815Z,1013.1
2019-01-15T09:15:08.809Z,1013.1
2019-01-15T09:16:18.618Z,1013.07
2019-01-15T09:17:27.794Z,1013.22
2019-01-15T09:18:37.222Z,1013.18
2019-01-15T09:19:47.090Z,1013.11
2019-01-15T09:20:56.321Z,1013.1
2019-01-15T09:22:05.501Z,1013.09
2019-01-15T09:23:14.935Z,1013.1
2019-01-15T09:24:24.770Z,1013.09
2019-01-15T09:25:33.697Z,1013.13
2019-01-15T09:26:43.378Z,1013.06
2019-01-15T09:27:53.051Z,1013.04
2019-01-15T09:29:02.982Z,1013.17
2019-01-15T09:30:12.864Z,1013.05
2019-01-15T09:31:22.795Z,1013.03
2019-01-15T09:32:32.235Z,1013.05
2019-01-15T09:33:42.184Z,1013.04
2019-01-15T09:34:51.861Z,1013.05
2019-01-15T09:36:01.056Z,1013.1
2019-01-15T09:37:10.978Z,1013.09
2019-01-15T09:38:20.901Z,1013.02
2019-01-15T09:39:30.829Z,1013.03
2019-01-15T09:40:40.751Z,1013.04
2019-01-15T09:41:50.427Z,1013.06
2019-01-15T09:43:00.108Z,1013
2019-01-15T09:44:09.584Z,1013.01
2019-01-15T09:45:19.266Z,1012.99
2019-01-15T09:46:28.439Z,1012.97
2019-01-15T09:47:38.383Z,1013
2019-01-15T09:48:48.306Z,1012.98
2019-01-15T09:49:58.229Z,1012.98
2019-01-15T09:51:08.160Z,1012.97
2019-01-15T09:52:20.429Z,1012.98
2019-01-15T09:53:31.271Z,1012.98
2019-01-15T09:54:40.951Z,1012.95
2019-01-15T09:55:50.886Z,1012.94
2019-01-15T09:57:00.311Z,1012.9
2019-01-15T09:58:09.994Z,1012.96
2019-01-15T09:59:19.917Z,1012.96
2019-01-15T10:00:29.854Z,1012.95
2019-01-15T10:01:39.280Z,1012.9
2019-01-15T10:02:49.217Z,1012.83
2019-01-15T10:03:58.641Z,1012.92
2019-01-15T10:05:08.321Z,1012.87
2019-01-15T10:06:18.009Z,1012.83
2019-01-15T10:07:27.434Z,1012.85
2019-01-15T10:08:37.367Z,1012.84
2019-01-15T10:09:47.291Z,1012.81
2019-01-15T10:10:56.726Z,1012.83
2019-01-15T10:12:06.409Z,1012.8
2019-01-15T10:13:16.331Z,1012.77
2019-01-15T10:14:26.257Z,1012.82
2019-01-15T10:15:41.526Z,1012.75
2019-01-15T10:16:51.206Z,1012.73
2019-01-15T10:18:00.906Z,1012.73
2019-01-15T10:19:10.590Z,1012.71
2019-01-15T10:20:20.021Z,1012.7
2019-01-15T10:21:29.452Z,1012.65
2019-01-15T10:22:40.345Z,1012.67
2019-01-15T10:23:50.269Z,1012.74
2019-01-15T10:24:59.947Z,1012.65
2019-01-15T10:26:09.625Z,1012.58
2019-01-15T10:27:19.544Z,1012.61
2019-01-15T10:28:29.470Z,1012.51
2019-01-15T10:29:38.893Z,1012.5
2019-01-15T10:30:48.572Z,1012.52
2019-01-15T10:31:58.495Z,1012.47
2019-01-15T10:33:08.174Z,1012.48
2019-01-15T10:34:17.847Z,1012.47
2019-01-15T10:35:27.783Z,1012.58
2019-01-15T10:36:37.312Z,1012.43
2019-01-15T10:37:47.311Z,1012.45
2019-01-15T10:38:56.992Z,1012.47
2019-01-15T10:40:06.672Z,1012.47
2019-01-15T10:41:16.095Z,1012.39
2019-01-15T10:42:26.022Z,1012.42
2019-01-15T10:43:35.697Z,1012.43
2019-01-15T10:44:48.682Z,1012.42
2019-01-15T10:45:58.345Z,1012.44
2019-01-15T10:47:08.033Z,1012.41
2019-01-15T10:48:17.706Z,1012.38
2019-01-15T10:49:27.138Z,1012.37
2019-01-15T10:50:37.073Z,1012.36
2019-01-15T10:51:46.497Z,1012.4
2019-01-15T10:52:55.923Z,1012.34
2019-01-15T10:54:05.598Z,1012.36
2019-01-15T10:55:15.282Z,1012.23
2019-01-15T10:56:24.968Z,1012.32
2019-01-15T10:57:34.397Z,1012.34
2019-01-15T10:58:44.326Z,1012.33
2019-01-15T10:59:53.751Z,1012.33
2019-01-15T11:01:03.422Z,1012.29
2019-01-15T11:02:13.368Z,1012.37
2019-01-15T11:03:23.302Z,1012.38
2019-01-15T11:04:32.731Z,1012.27
2019-01-15T11:05:42.404Z,1012.26
2019-01-15T11:06:52.085Z,1012.25
2019-01-15T11:08:01.516Z,1012.28
2019-01-15T11:09:10.997Z,1012.18
2019-01-15T11:10:20.427Z,1012.29
2019-01-15T11:11:30.353Z,1012.23
2019-01-15T11:12:40.274Z,1012.25
2019-01-15T11:13:49.953Z,1012.29
2019-01-15T11:14:59.385Z,1012.19
2019-01-15T11:16:09.327Z,1012.17
2019-01-15T11:17:19.068Z,1012.2
2019-01-15T11:18:29.001Z,1012.27
2019-01-15T11:19:40.039Z,1012.2
2019-01-15T11:20:49.464Z,1012.14
2019-01-15T11:21:58.898Z,1012.13
2019-01-15T11:23:08.581Z,1012.09
2019-01-15T11:24:18.265Z,1012.04
2019-01-15T11:25:28.249Z,1012.07
2019-01-15T11:26:38.193Z,1012.07
2019-01-15T11:27:48.120Z,1012.09
2019-01-15T11:28:57.796Z,1012.07
2019-01-15T11:30:07.479Z,1012
2019-01-15T11:31:17.158Z,1011.97
2019-01-15T11:32:27.086Z,1012.01
2019-01-15T11:33:36.263Z,1011.96
2019-01-15T11:34:45.689Z,1012.01
2019-01-15T11:35:55.360Z,1011.93
2019-01-15T11:37:05.037Z,1011.96
2019-01-15T11:38:14.717Z,1011.95
2019-01-15T11:39:24.643Z,1011.89
2019-01-15T11:40:34.320Z,1011.87
2019-01-15T11:41:43.740Z,1011.85
2019-01-15T11:42:53.665Z,1011.88
2019-01-15T11:44:03.344Z,1011.87
2019-01-15T11:45:13.026Z,1011.88
2019-01-15T11:46:22.705Z,1011.88
2019-01-15T11:47:32.134Z,1011.82
2019-01-15T11:48:41.566Z,1011.8
2019-01-15T11:49:51.502Z,1011.79
2019-01-15T11:51:01.460Z,1011.76
2019-01-15T11:52:10.905Z,1011.72
2019-01-15T11:53:20.340Z,1011.73
2019-01-15T11:54:30.278Z,1011.71
2019-01-15T11:55:40.267Z,1011.63
2019-01-15T11:56:49.949Z,1011.62
2019-01-15T11:57:59.878Z,1011.64
2019-01-15T11:59:09.808Z,1011.61
2019-01-15T12:00:19.492Z,1011.6
2019-01-15T12:01:29.174Z,1011.53
2019-01-15T12:02:38.870Z,1011.53
2019-01-15T12:03:48.794Z,1011.5
2019-01-15T12:04:58.475Z,1011.57
2019-01-15T12:06:07.912Z,1011.6
2019-01-15T12:07:17.129Z,1011.49
2019-01-15T12:08:26.806Z,1011.44
2019-01-15T12:09:36.492Z,1011.45
2019-01-15T12:10:46.170Z,1011.47
2019-01-15T12:11:56.132Z,1011.41
2019-01-15T12:13:05.553Z,1011.43
2019-01-15T12:14:15.233Z,1011.28
2019-01-15T12:15:24.914Z,1011.29
2019-01-15T12:16:34.393Z,1011.35
2019-01-15T12:17:44.313Z,1011.3
2019-01-15T12:18:53.995Z,1011.3
2019-01-15T12:20:03.421Z,1011.29
2019-01-15T12:21:13.098Z,1011.29
2019-01-15T12:22:22.776Z,1011.25
2019-01-15T12:23:31.978Z,1011.24
2019-01-15T12:24:41.653Z,1011.26
2019-01-15T12:25:50.832Z,1011.32
2019-01-15T12:27:00.502Z,1011.23
2019-01-15T12:28:09.936Z,1011.26
2019-01-15T12:29:19.942Z,1011.27
2019-01-15T12:30:29.638Z,1011.21
2019-01-15T12:31:39.558Z,1011.2
2019-01-15T12:32:48.515Z,1011.19
2019-01-15T12:33:58.443Z,1011.17
2019-01-15T12:35:08.138Z,1011.1
2019-01-15T12:36:18.067Z,1011.26
2019-01-15T12:37:27.721Z,1011.34
2019-01-15T12:38:37.422Z,1011.16
2019-01-15T12:39:46.855Z,1011.15
2019-01-15T12:40:56.528Z,1011.18
2019-01-15T12:42:06.465Z,1011.11
2019-01-15T12:43:15.646Z,1011.08
2019-01-15T12:44:25.603Z,1011.1
2019-01-15T12:45:35.528Z,1011.07
2019-01-15T12:46:44.969Z,1011.1
2019-01-15T12:47:54.641Z,1011.08
2019-01-15T12:49:04.320Z,1011.05
2019-01-15T12:50:14.270Z,1011.02
2019-01-15T12:51:23.698Z,1010.89
2019-01-15T12:52:33.380Z,1010.9
2019-01-15T12:53:43.062Z,1010.96
2019-01-15T12:54:52.486Z,1010.76
2019-01-15T12:56:02.411Z,1010.97
2019-01-15T12:57:18.803Z,1010.92
2019-01-15T12:58:28.748Z,1010.95
2019-01-15T12:59:38.679Z,1010.9
2019-01-15T13:00:48.353Z,1010.93
2019-01-15T13:01:58.032Z,1010.9
2019-01-15T13:03:07.960Z,1010.9
2019-01-15T13:04:17.396Z,1010.9
2019-01-15T13:05:27.072Z,1010.9
2019-01-15T13:06:36.758Z,1010.84
2019-01-15T13:07:46.692Z,1010.84
2019-01-15T13:08:56.375Z,1010.98
2019-01-15T13:10:05.807Z,1010.89
2019-01-15T13:11:14.986Z,1011
2019-01-15T13:12:24.680Z,1010.94
2019-01-15T13:13:33.608Z,1010.87
2019-01-15T13:14:43.291Z,1010.96
2019-01-15T13:15:53.018Z,1010.95
2019-01-15T13:17:02.503Z,1010.9
2019-01-15T13:18:12.482Z,1010.98
2019-01-15T13:19:22.193Z,1011
2019-01-15T13:20:32.178Z,1010.98
2019-01-15T13:21:41.381Z,1011.01
2019-01-15T13:22:51.087Z,1010.98
2019-01-15T13:24:00.351Z,1011.03
2019-01-15T13:25:09.627Z,1011.06
2019-01-15T13:26:19.619Z,1010.99
2019-01-15T13:27:29.416Z,1011.03
2019-01-15T13:28:38.907Z,1011.05
2019-01-15T13:29:48.455Z,1011.01
2019-01-15T13:30:57.940Z,1011.14
2019-01-15T13:32:07.502Z,1011.21
2019-01-15T13:33:17.352Z,1011.02
2019-01-15T13:34:27.297Z,1011.03
2019-01-15T13:35:37.227Z,1010.99
2019-01-15T13:36:46.413Z,1010.98
2019-01-15T13:37:56.340Z,1011.09
2019-01-15T13:39:06.266Z,1011.08
2019-01-15T13:40:16.185Z,1011.07
2019-01-15T13:41:26.111Z,1011.08
2019-01-15T13:42:35.539Z,1011.11
2019-01-15T13:43:45.218Z,1011.09
2019-01-15T13:44:54.905Z,1011.13
2019-01-15T13:46:04.583Z,1011.08
2019-01-15T13:47:14.022Z,1011
2019-01-15T13:48:23.204Z,1011.1
2019-01-15T13:49:33.135Z,1011.1
2019-01-15T13:50:43.147Z,1010.99
2019-01-15T13:51:52.577Z,1011.05
2019-01-15T13:53:02.251Z,1010.98
2019-01-15T13:54:11.178Z,1010.98
2019-01-15T13:55:20.606Z,1010.93
2019-01-15T13:56:30.957Z,1010.99
2019-01-15T13:57:40.635Z,1010.92
2019-01-15T13:58:50.070Z,1010.91
2019-01-15T13:59:59.497Z,1010.88
2019-01-15T14:01:09.176Z,1010.91
2019-01-15T14:02:18.364Z,1011.04
2019-01-15T14:03:28.312Z,1011.07
2019-01-15T14:04:37.985Z,1010.99
2019-01-15T14:05:47.668Z,1010.87
2019-01-15T14:06:58.934Z,1010.86
2019-01-15T14:08:08.631Z,1010.84
2019-01-15T14:09:17.808Z,1010.87
2019-01-15T14:10:26.997Z,1010.84